Time;durP1;ratioP1;P1;durP2;ratioP2;P2;SDS_P1;SDS_P2;PMS_P1;PMS_P2;Temp;Humidity;BMP_temperature;BMP_pressure;BME280_temperature;BME280_humidity;BME280_pressure;Samples;Min_cycle;Max_cycle;Signal;HPM_P1;HPM_P2
2022/04/18 00:01:44;;;;;;;0.93;0.80;;;;;;;2.17;66.28;92923.09;5111998;27;20081;-38
2022/04/18 00:04:09;;;;;;;0.98;0.80;;;;;;;2.12;68.96;92936.78;5112144;28;20533;-38
2022/04/18 00:06:36;;;;;;;0.75;0.75;;;;;;;2.14;69.84;92932.28;5111863;28;20019;-38
2022/04/18 00:09:03;;;;;;;1.40;0.63;;;;;;;2.18;66.94;92919.16;5111754;28;20417;-38
2022/04/18 00:11:29;;;;;;;0.52;0.52;;;;;;;2.17;66.15;92938.69;5111677;28;20028;-38
2022/04/18 00:13:54;;;;;;;1.25;0.98;;;;;;;2.15;65.62;92925.59;5098239;28;20032;-38
2022/04/18 00:16:19;;;;;;;0.80;0.80;;;;;;;2.08;65.19;92917.97;5091049;28;20048;-37
2022/04/18 00:18:45;;;;;;;0.68;0.68;;;;;;;2.12;66.30;92921.16;5091563;28;20028;-38
2022/04/18 00:21:10;;;;;;;1.08;0.88;;;;;;;2.13;67.09;92944.44;5090152;28;20032;-38
2022/04/18 00:23:36;;;;;;;0.70;0.70;;;;;;;2.20;68.13;92943.91;5091138;28;20489;-38
2022/04/18 00:26:02;;;;;;;0.80;0.80;;;;;;;2.22;66.77;92932.47;5091075;28;20386;-38
2022/04/18 00:28:27;;;;;;;0.80;0.77;;;;;;;2.28;66.96;92947.53;5091096;28;20171;-38
2022/04/18 00:30:53;;;;;;;1.38;1.20;;;;;;;2.23;69.23;92944.88;5089743;28;20484;-38
2022/04/18 00:33:19;;;;;;;3.63;3.03;;;;;;;2.21;69.83;92947.34;5091023;28;20023;-38
2022/04/18 00:35:44;;;;;;;1.13;1.02;;;;;;;2.24;70.82;92938.16;5090874;28;20035;-38
2022/04/18 00:38:10;;;;;;;1.30;1.17;;;;;;;2.23;68.61;92936.69;5090820;28;20077;-38
2022/04/18 00:40:35;;;;;;;1.38;1.27;;;;;;;2.24;69.21;92933.47;5101157;28;20033;-38
2022/04/18 00:43:02;;;;;;;1.33;1.20;;;;;;;2.20;69.68;92921.38;5111387;28;20024;-38
2022/04/18 00:45:28;;;;;;;3.83;1.73;;;;;;;2.35;70.36;92934.59;5111462;28;20028;-38
2022/04/18 00:47:53;;;;;;;0.90;0.90;;;;;;;2.33;69.81;92937.09;5111125;28;20424;-38
2022/04/18 00:50:19;;;;;;;1.42;1.25;;;;;;;2.29;70.73;92927.22;5111036;28;20034;-38
2022/04/18 00:52:45;;;;;;;0.80;0.80;;;;;;;2.14;70.41;92920.66;5110543;28;20038;-38
2022/04/18 00:55:11;;;;;;;0.80;0.80;;;;;;;2.18;71.96;92926.56;5110905;28;20084;-38
2022/04/18 00:57:37;;;;;;;1.50;1.13;;;;;;;2.19;71.30;92919.88;5109821;28;20401;-38
2022/04/18 01:00:04;;;;;;;0.77;0.77;;;;;;;2.10;71.51;92910.03;5109980;28;20408;-38
2022/04/18 01:02:29;;;;;;;1.33;0.93;;;;;;;2.05;70.42;92921.00;5111105;28;20055;-38
2022/04/18 01:04:55;;;;;;;1.15;0.80;;;;;;;1.96;69.00;92899.50;5110872;28;20496;-38
2022/04/18 01:07:21;;;;;;;0.93;0.93;;;;;;;1.95;67.93;92903.50;5110783;28;20027;-38
2022/04/18 01:09:46;;;;;;;0.93;0.93;;;;;;;1.92;69.55;92907.97;5111132;28;20034;-38
2022/04/18 01:12:11;;;;;;;0.90;0.90;;;;;;;2.07;69.88;92910.31;5110960;28;20023;-38
2022/04/18 01:14:37;;;;;;;1.85;1.30;;;;;;;2.14;70.96;92907.06;5091100;28;20079;-38
2022/04/18 01:17:03;;;;;;;1.48;1.13;;;;;;;2.10;69.12;92914.78;5090279;28;20512;-38
2022/04/18 01:19:28;;;;;;;1.70;1.52;;;;;;;2.15;70.51;92892.94;5090574;28;20032;-39
2022/04/18 01:21:53;;;;;;;1.63;1.33;;;;;;;2.25;69.57;92907.69;5090617;28;20033;-38
2022/04/18 01:29:48;;;;;;;0.85;0.85;;;;;;;2.10;70.02;92890.97;5089546;28;20471;-38
2022/04/18 01:32:13;;;;;;;1.90;1.40;;;;;;;2.06;71.05;92897.94;5090468;28;20036;-38
2022/04/18 01:34:39;;;;;;;2.28;1.27;;;;;;;2.08;71.60;92893.47;5090473;28;20085;-38
2022/04/18 01:37:04;;;;;;;1.25;1.15;;;;;;;2.15;71.62;92906.53;5102230;28;20031;-38
2022/04/18 01:39:30;;;;;;;1.85;0.90;;;;;;;2.13;71.69;92884.53;5110768;28;20042;-38
2022/04/18 01:41:55;;;;;;;0.70;0.70;;;;;;;2.17;72.14;92892.41;5110397;28;20412;-38
2022/04/18 01:44:21;;;;;;;1.00;0.90;;;;;;;2.22;69.97;92878.75;5110636;28;20034;-38
2022/04/18 01:46:46;;;;;;;0.90;0.90;;;;;;;2.18;70.74;92880.28;5110710;28;20497;-38
2022/04/18 01:49:12;;;;;;;0.90;0.90;;;;;;;2.14;71.26;92888.00;5110620;28;20028;-38
2022/04/18 01:51:37;;;;;;;1.05;0.88;;;;;;;2.08;71.74;92884.59;5110451;28;20047;-38
2022/04/18 01:54:03;;;;;;;2.30;1.90;;;;;;;2.19;72.26;92887.19;5110549;28;20480;-38
2022/04/18 01:56:28;;;;;;;1.10;1.10;;;;;;;2.18;70.58;92872.13;5110245;28;20024;-38
2022/04/18 01:58:53;;;;;;;1.38;1.27;;;;;;;2.10;70.39;92873.94;5110605;28;20028;-38
2022/04/18 02:01:19;;;;;;;2.15;1.95;;;;;;;2.17;71.57;92871.38;5110267;28;20020;-38
2022/04/18 02:03:45;;;;;;;1.25;0.90;;;;;;;2.26;70.36;92868.31;5110863;28;20054;-38
2022/04/18 02:06:11;;;;;;;13.98;2.58;;;;;;;2.35;70.32;92869.97;5114333;28;20096;-38
2022/04/18 02:08:36;;;;;;;1.10;1.00;;;;;;;2.31;69.56;92861.34;5114465;28;20103;-38
2022/04/18 02:11:04;;;;;;;3.88;3.38;;;;;;;2.43;70.49;92867.41;5114316;28;20495;-38
2022/04/18 02:13:29;;;;;;;3.15;2.55;;;;;;;2.48;69.79;92861.19;5103798;28;20059;-38
2022/04/18 02:15:59;;;;;;;1.55;1.30;;;;;;;2.41;70.12;92848.84;5093415;28;20040;-38
2022/04/18 02:18:24;;;;;;;1.15;1.05;;;;;;;2.47;70.21;92848.81;5093514;28;20028;-38
2022/04/18 02:20:50;;;;;;;1.50;1.40;;;;;;;2.41;70.42;92854.31;5093417;28;20030;-38
2022/04/18 02:23:16;;;;;;;0.60;0.60;;;;;;;1.84;69.73;92816.47;5093480;28;20032;-38
2022/04/18 02:25:41;;;;;;;0.60;0.60;;;;;;;2.02;71.30;92853.94;5093402;28;20077;-38
2022/04/18 02:28:07;;;;;;;0.93;0.80;;;;;;;2.11;71.30;92861.78;5093678;28;20031;-38
2022/04/18 02:30:32;;;;;;;0.35;0.35;;;;;;;1.90;68.98;92845.13;5093279;28;20107;-38
2022/04/18 02:32:59;;;;;;;0.60;0.60;;;;;;;1.95;72.06;92857.22;5102518;28;20034;-38
2022/04/18 02:35:26;;;;;;;0.40;0.40;;;;;;;1.99;70.57;92868.56;5113841;28;20069;-38
2022/04/18 02:37:52;;;;;;;0.60;0.60;;;;;;;1.81;71.13;92847.41;5113523;28;20115;-38
2022/04/18 02:40:18;;;;;;;0.57;0.50;;;;;;;1.81;70.93;92861.78;5113850;28;20054;-38
2022/04/18 02:42:44;;;;;;;0.70;0.70;;;;;;;1.87;71.03;92859.00;5113464;28;20477;-38
2022/04/18 02:45:10;;;;;;;3.05;2.70;;;;;;;1.90;73.91;92855.28;5113405;28;20020;-38
2022/04/18 02:47:36;;;;;;;1.63;1.40;;;;;;;2.04;73.33;92856.88;5113736;28;20020;-38
2022/04/18 02:50:01;;;;;;;0.88;0.85;;;;;;;2.08;72.67;92866.25;5113501;28;20024;-38
2022/04/18 02:52:27;;;;;;;0.82;0.77;;;;;;;2.16;70.81;92858.28;5113615;28;20480;-38
2022/04/18 02:54:52;;;;;;;0.68;0.63;;;;;;;2.16;70.27;92852.81;5113207;28;20034;-38
2022/04/18 02:57:18;;;;;;;0.75;0.60;;;;;;;2.19;70.60;92847.09;5113117;28;20031;-38
2022/04/18 02:59:43;;;;;;;1.10;1.00;;;;;;;2.21;71.40;92846.56;5113080;28;20053;-38
2022/04/18 03:02:08;;;;;;;1.27;0.60;;;;;;;2.16;71.32;92858.28;5113390;28;20030;-38
2022/04/18 03:04:34;;;;;;;0.90;0.90;;;;;;;2.09;69.98;92843.22;5113410;28;20416;-38
2022/04/18 03:07:00;;;;;;;1.88;1.10;;;;;;;2.11;70.17;92831.81;5113282;27;20459;-38
2022/04/18 03:09:26;;;;;;;0.88;0.88;;;;;;;1.95;69.67;92824.56;5113252;28;20024;-38
2022/04/18 03:11:51;;;;;;;0.88;0.85;;;;;;;2.14;70.46;92838.97;5112838;28;20558;-38
2022/04/18 03:14:17;;;;;;;1.73;1.63;;;;;;;2.20;70.63;92828.78;5107742;28;20031;-38
2022/04/18 03:16:42;;;;;;;1.92;1.38;;;;;;;2.29;71.04;92839.34;5112353;28;20028;-38
2022/04/18 03:19:08;;;;;;;0.90;0.75;;;;;;;2.29;69.47;92839.34;5112710;28;20020;-38
2022/04/18 03:21:33;;;;;;;0.70;0.70;;;;;;;2.24;70.17;92837.38;5112973;28;20100;-38
2022/04/18 03:23:58;;;;;;;0.80;0.63;;;;;;;2.15;69.74;92835.00;5112625;28;20027;-38
2022/04/18 03:26:24;;;;;;;0.50;0.50;;;;;;;1.90;70.64;92828.06;5112913;28;20084;-38
2022/04/18 03:28:50;;;;;;;1.92;1.38;;;;;;;2.06;71.96;92835.31;5106639;28;20081;-38
2022/04/18 03:31:16;;;;;;;1.52;0.88;;;;;;;2.07;70.91;92842.25;5092477;28;20093;-38
2022/04/18 03:33:41;;;;;;;0.88;0.70;;;;;;;1.85;71.14;92843.19;5092116;28;20024;-38
2022/04/18 03:41:34;;;;;;;6.05;4.15;;;;;;;1.88;72.08;92850.34;5092285;28;20480;-38
2022/04/18 03:44:00;;;;;;;0.93;0.85;;;;;;;2.00;71.50;92837.38;5092113;28;20028;-38
2022/04/18 03:46:25;;;;;;;0.85;0.80;;;;;;;1.84;69.66;92846.41;5091907;28;20034;-38
2022/04/18 03:48:51;;;;;;;0.77;0.77;;;;;;;1.69;70.89;92837.88;5092002;28;20051;-38
2022/04/18 03:51:16;;;;;;;1.30;1.20;;;;;;;1.79;72.93;92836.31;5092057;28;20436;-38
2022/04/18 03:53:42;;;;;;;2.03;1.17;;;;;;;1.90;70.97;92844.38;5091989;28;20401;-38
2022/04/18 03:56:07;;;;;;;1.92;1.42;;;;;;;1.80;70.83;92848.69;5091572;28;20423;-38
2022/04/18 03:58:32;;;;;;;2.20;2.00;;;;;;;1.85;71.59;92847.88;5091855;28;20109;-38
2022/04/18 04:00:58;;;;;;;2.35;1.38;;;;;;;1.85;69.92;92845.91;5091875;28;20440;-38
2022/04/18 04:03:26;;;;;;;2.47;1.58;;;;;;;1.73;69.21;92851.94;5091791;28;20032;-38
2022/04/18 04:05:52;;;;;;;3.40;2.38;;;;;;;1.72;68.99;92851.19;5091408;28;20020;-38
2022/04/18 04:08:21;;;;;;;7.35;3.88;;;;;;;1.78;70.78;92851.16;5091688;28;20031;-38
2022/04/18 04:10:46;;;;;;;2.30;1.90;;;;;;;1.81;71.05;92848.16;5091659;28;20074;-38
2022/04/18 04:13:12;;;;;;;1.83;1.40;;;;;;;1.90;71.22;92847.09;5095754;28;20140;-38
2022/04/18 04:15:39;;;;;;;1.35;1.20;;;;;;;1.91;70.23;92851.28;5091058;28;20409;-38
2022/04/18 04:18:04;;;;;;;1.50;1.10;;;;;;;1.92;70.69;92848.09;5091557;28;20034;-38
2022/04/18 04:20:30;;;;;;;1.90;1.52;;;;;;;1.96;70.31;92850.50;5091502;28;20408;-38
2022/04/18 04:22:55;;;;;;;1.67;1.20;;;;;;;1.98;70.02;92843.31;5091484;28;20507;-38
2022/04/18 04:25:21;;;;;;;2.08;1.25;;;;;;;1.97;70.76;92843.84;5099293;28;20484;-38
2022/04/18 04:27:46;;;;;;;2.40;1.70;;;;;;;1.89;70.19;92856.50;5110694;28;20035;-38
2022/04/18 04:30:12;;;;;;;1.40;1.30;;;;;;;1.92;70.50;92850.06;5111594;28;20026;-37
2022/04/18 04:32:37;;;;;;;1.77;1.48;;;;;;;1.97;69.83;92849.28;5111652;28;20086;-38
2022/04/18 04:35:03;;;;;;;4.97;3.28;;;;;;;1.97;68.79;92849.28;5111591;28;20409;-38
2022/04/18 04:37:28;;;;;;;2.25;1.77;;;;;;;1.95;69.01;92857.22;5111226;28;20045;-38
2022/04/18 04:39:54;;;;;;;1.63;1.52;;;;;;;2.00;69.78;92846.28;5111546;28;20515;-38
2022/04/18 04:42:19;;;;;;;1.98;1.75;;;;;;;2.04;69.31;92844.00;5111173;28;20028;-38
2022/04/18 04:44:45;;;;;;;1.83;1.60;;;;;;;2.09;69.52;92845.94;5111121;28;20042;-38
2022/04/18 04:47:11;;;;;;;2.10;1.90;;;;;;;2.06;69.65;92849.69;5111106;28;20015;-38
2022/04/18 04:49:37;;;;;;;1.55;1.38;;;;;;;2.10;68.54;92860.31;5111443;28;20043;-38
2022/04/18 04:52:04;;;;;;;3.03;2.25;;;;;;;1.99;70.96;92854.97;5110998;28;20524;-38
2022/04/18 04:54:29;;;;;;;1.92;1.80;;;;;;;2.06;70.08;92857.09;5110999;28;20115;-38
2022/04/18 04:56:55;;;;;;;2.25;1.60;;;;;;;2.14;68.52;92855.31;5110892;28;20028;-38
2022/04/18 04:59:20;;;;;;;1.52;1.42;;;;;;;2.24;68.72;92851.75;5111249;28;20051;-38
2022/04/18 05:01:46;;;;;;;2.00;1.80;;;;;;;2.22;69.30;92859.69;5111118;28;20027;-38
2022/04/18 05:04:11;;;;;;;5.95;3.00;;;;;;;2.34;69.62;92862.31;5110816;28;20532;-38
2022/04/18 05:06:37;;;;;;;2.25;1.77;;;;;;;2.39;68.01;92864.22;5110837;28;20019;-38
2022/04/18 05:09:02;;;;;;;2.28;1.98;;;;;;;2.43;69.15;92842.88;5110709;28;20024;-38
2022/04/18 05:11:28;;;;;;;1.67;1.58;;;;;;;2.50;68.69;92859.41;5110904;28;20032;-38
2022/04/18 05:13:53;;;;;;;2.25;1.98;;;;;;;2.43;67.91;92851.81;5097220;28;20496;-38
2022/04/18 05:16:19;;;;;;;2.75;2.17;;;;;;;2.49;67.25;92855.22;5090187;28;20063;-38
2022/04/18 05:18:44;;;;;;;6.18;3.42;;;;;;;2.55;68.22;92860.63;5090259;28;20035;-38
2022/04/18 05:21:11;;;;;;;17.55;8.05;;;;;;;2.65;68.61;92859.00;5094862;28;20031;-38
2022/04/18 05:23:37;;;;;;;18.30;6.78;;;;;;;2.67;68.36;92862.72;5110935;28;20026;-38
2022/04/18 05:26:02;;;;;;;40.92;15.98;;;;;;;2.64;67.37;92841.91;5110777;28;20075;-38
2022/04/18 05:28:28;;;;;;;21.40;10.27;;;;;;;2.84;67.64;92854.34;5110915;28;20489;-37
2022/04/18 05:30:53;;;;;;;2.83;2.10;;;;;;;2.85;65.79;92858.56;5110501;28;20031;-38
2022/04/18 05:33:21;;;;;;;2.30;1.60;;;;;;;2.75;65.84;92858.16;5110502;28;20036;-37
2022/04/18 05:35:47;;;;;;;3.80;2.72;;;;;;;2.74;64.67;92862.16;5110416;28;20060;-38
2022/04/18 05:38:14;;;;;;;7.50;4.88;;;;;;;2.90;65.66;92872.09;5111447;28;20023;-38
2022/04/18 05:40:40;;;;;;;3.90;3.08;;;;;;;3.05;66.89;92861.50;5114698;27;20558;-38
2022/04/18 05:43:08;;;;;;;3.40;2.17;;;;;;;3.21;65.91;92865.28;5114539;28;20503;-38
2022/04/18 05:45:37;;;;;;;3.20;2.70;;;;;;;3.35;65.87;92871.56;5114605;28;20028;-38
2022/04/18 05:48:02;;;;;;;6.53;4.28;;;;;;;3.48;64.04;92864.22;5114508;28;20465;-38
2022/04/18 05:50:28;;;;;;;5.10;2.95;;;;;;;3.45;64.16;92872.66;5114534;28;20035;-38
2022/04/18 05:52:54;;;;;;;18.15;9.57;;;;;;;3.22;61.58;92869.50;5114697;28;20047;-38
2022/04/18 05:55:20;;;;;;;4.40;2.83;;;;;;;3.51;64.03;92876.78;5114712;28;20034;-38
2022/04/18 05:57:46;;;;;;;8.75;5.43;;;;;;;3.62;63.42;92879.38;5114284;28;20030;-38
2022/04/18 06:00:12;;;;;;;3.40;2.10;;;;;;;3.75;63.66;92878.69;5114515;28;20027;-38
2022/04/18 06:02:37;;;;;;;2.35;1.90;;;;;;;3.84;63.86;92872.84;5114526;28;20050;-38
2022/04/18 06:05:03;;;;;;;3.17;2.20;;;;;;;3.95;62.92;92877.41;5114138;28;20032;-38
2022/04/18 06:07:28;;;;;;;2.45;2.25;;;;;;;4.06;63.45;92877.25;5114509;28;20096;-38
2022/04/18 06:09:54;;;;;;;2.00;1.77;;;;;;;3.95;61.86;92878.16;5114144;28;20488;-38
2022/04/18 06:12:20;;;;;;;1.95;1.85;;;;;;;3.94;62.05;92865.78;5114332;28;20023;-38
2022/04/18 06:14:45;;;;;;;1.45;1.15;;;;;;;4.00;61.46;92879.34;5093153;28;20044;-38
2022/04/18 06:17:11;;;;;;;1.67;1.45;;;;;;;4.21;62.48;92866.56;5095930;28;20020;-38
2022/04/18 06:19:36;;;;;;;1.77;1.30;;;;;;;4.14;61.72;92876.13;5113992;28;20028;-38
2022/04/18 06:22:03;;;;;;;1.48;1.33;;;;;;;4.02;62.37;92865.88;5114013;28;20020;-38
2022/04/18 06:24:28;;;;;;;1.23;1.10;;;;;;;3.97;62.82;92858.50;5113836;28;20031;-38
2022/04/18 06:26:54;;;;;;;1.40;1.30;;;;;;;4.03;62.47;92873.56;5113742;28;20030;-38
2022/04/18 06:29:19;;;;;;;2.13;1.35;;;;;;;4.20;62.61;92878.78;5113848;28;20016;-38
2022/04/18 06:31:46;;;;;;;0.98;0.90;;;;;;;4.27;60.69;92870.69;5113686;28;20020;-38
2022/04/18 06:34:12;;;;;;;1.27;1.17;;;;;;;4.09;61.00;92882.41;5113921;28;20028;-38
2022/04/18 06:36:38;;;;;;;1.83;1.63;;;;;;;4.27;63.45;92880.88;5113851;28;20015;-38
2022/04/18 06:39:03;;;;;;;1.20;1.10;;;;;;;4.61;62.33;92890.00;5113542;28;20102;-38
2022/04/18 06:41:29;;;;;;;1.50;1.35;;;;;;;4.70;59.12;92892.31;5113853;28;20103;-38
2022/04/18 06:43:55;;;;;;;1.58;1.42;;;;;;;4.32;60.72;92872.59;5113385;28;20420;-38
2022/04/18 06:46:20;;;;;;;1.65;1.55;;;;;;;4.63;63.27;92884.75;5113768;28;20012;-38
2022/04/18 06:48:45;;;;;;;1.63;1.50;;;;;;;4.82;62.11;92873.72;5113622;28;20404;-38
2022/04/18 06:51:11;;;;;;;0.90;0.90;;;;;;;4.68;59.40;92875.69;5112725;28;20500;-38
2022/04/18 06:53:36;;;;;;;1.27;1.10;;;;;;;4.66;60.61;92889.16;5113363;28;20408;-38
2022/04/18 06:58:46;;;;;;;0.70;0.70;;;;;;;4.88;61.03;92888.00;5113562;28;20031;-38
2022/04/18 07:01:11;;;;;;;1.20;1.10;;;;;;;5.15;60.95;92887.50;5113063;28;20024;-38
2022/04/18 07:03:37;;;;;;;0.98;0.75;;;;;;;5.04;58.59;92887.72;5113399;28;20034;-38
2022/04/18 07:06:03;;;;;;;2.53;1.45;;;;;;;5.08;59.05;92887.41;5112994;28;20019;-38
2022/04/18 07:08:29;;;;;;;1.05;1.05;;;;;;;5.46;59.43;92896.09;5113330;28;20416;-38
2022/04/18 07:10:54;;;;;;;0.60;0.60;;;;;;;5.63;57.62;92896.50;5113218;28;20027;-38
2022/04/18 07:13:20;;;;;;;0.63;0.63;;;;;;;5.68;57.51;92896.38;5105626;28;20012;-38
2022/04/18 07:15:46;;;;;;;1.10;1.00;;;;;;;5.82;57.85;92897.81;5112631;28;20520;-38
2022/04/18 07:18:11;;;;;;;1.75;1.63;;;;;;;5.94;58.84;92892.84;5113073;28;20080;-38
2022/04/18 07:20:37;;;;;;;0.90;0.90;;;;;;;6.00;55.43;92891.44;5112804;28;20422;-38
2022/04/18 07:23:02;;;;;;;1.35;0.90;;;;;;;6.25;54.32;92893.88;5112980;28;20015;-38
2022/04/18 07:25:28;;;;;;;0.80;0.80;;;;;;;6.69;56.50;92884.59;5113004;28;20165;-38
2022/04/18 07:27:53;;;;;;;0.70;0.70;;;;;;;7.36;54.74;92898.00;5112869;28;20015;-38
2022/04/18 07:30:18;;;;;;;0.63;0.63;;;;;;;7.88;51.47;92907.03;5112920;28;20020;-38
2022/04/18 07:32:44;;;;;;;0.68;0.55;;;;;;;8.35;51.32;92896.38;5112482;28;20015;-38
2022/04/18 07:35:11;;;;;;;0.95;0.70;;;;;;;8.64;48.54;92891.47;5112778;28;20038;-38
2022/04/18 07:37:37;;;;;;;3.33;0.80;;;;;;;8.43;48.64;92888.84;5112654;28;20055;-37
2022/04/18 07:40:03;;;;;;;1.65;1.20;;;;;;;7.97;48.91;92898.28;5112621;28;20600;-38
2022/04/18 07:42:29;;;;;;;0.80;0.77;;;;;;;8.23;51.58;92897.97;5112696;27;20031;-38
2022/04/18 07:44:54;;;;;;;0.75;0.75;;;;;;;8.24;50.44;92891.19;5112529;28;20019;-38
2022/04/18 07:47:20;;;;;;;0.60;0.60;;;;;;;8.04;49.46;92895.53;5112331;28;20020;-38
2022/04/18 07:49:45;;;;;;;0.60;0.60;;;;;;;8.25;48.99;92892.66;5112475;28;20023;-38
2022/04/18 07:52:12;;;;;;;0.63;0.63;;;;;;;8.84;48.52;92898.78;5112432;28;20504;-38
2022/04/18 07:54:38;;;;;;;1.33;1.23;;;;;;;9.04;45.41;92876.59;5112087;28;20027;-37
2022/04/18 07:57:04;;;;;;;0.40;0.40;;;;;;;9.45;46.97;92896.69;5112221;28;20412;-38
2022/04/18 07:59:30;;;;;;;0.57;0.57;;;;;;;10.04;46.58;92903.31;5112370;28;20160;-38
2022/04/18 08:01:56;;;;;;;0.77;0.77;;;;;;;9.91;46.53;92903.56;5111937;28;20060;-38
2022/04/18 08:04:21;;;;;;;0.65;0.65;;;;;;;10.18;46.19;92906.59;5112208;28;20506;-38
2022/04/18 08:06:47;;;;;;;1.30;0.95;;;;;;;11.12;44.83;92900.06;5111851;28;20020;-38
2022/04/18 08:09:12;;;;;;;2.05;1.30;;;;;;;11.31;43.80;92891.97;5111878;28;20016;-38
2022/04/18 08:11:38;;;;;;;1.25;1.10;;;;;;;11.71;41.18;92906.34;5092802;28;20488;-38
2022/04/18 08:14:03;;;;;;;2.20;1.25;;;;;;;11.51;39.93;92895.66;5105706;28;20424;-38
2022/04/18 08:16:29;;;;;;;0.65;0.60;;;;;;;11.19;40.08;92899.25;5110307;28;20054;-38
2022/04/18 08:18:55;;;;;;;1.08;0.98;;;;;;;10.71;42.50;92898.72;5110551;27;20034;-38
2022/04/18 08:21:21;;;;;;;0.43;0.43;;;;;;;10.30;42.91;92904.88;5110597;28;20031;-38
2022/04/18 08:23:48;;;;;;;1.10;1.00;;;;;;;9.73;44.05;92902.69;5111866;28;20401;-38
2022/04/18 08:26:14;;;;;;;3.90;2.60;;;;;;;9.58;46.45;92899.25;5111738;28;20030;-38
2022/04/18 08:28:40;;;;;;;6.57;1.65;;;;;;;9.22;47.12;92905.03;5111458;28;20450;-38
2022/04/18 08:31:07;;;;;;;4.05;2.25;;;;;;;8.85;49.97;92889.25;5111343;28;20102;-38
2022/04/18 08:33:33;;;;;;;5.63;3.22;;;;;;;9.03;48.90;92899.88;5111295;28;20504;-38
2022/04/18 08:35:59;;;;;;;2.83;2.17;;;;;;;9.01;47.13;92891.44;5111278;28;20019;-37
2022/04/18 08:38:26;;;;;;;1.20;1.10;;;;;;;8.99;45.54;92893.28;5111204;28;20028;-38
2022/04/18 08:40:55;;;;;;;1.02;0.82;;;;;;;9.32;45.37;92892.13;5111542;28;20034;-38
2022/04/18 08:43:20;;;;;;;;;;;;;;;9.52;46.72;92879.41;5112116;28;20047;-38
2022/04/18 08:45:47;;;;;;;1.88;1.23;;;;;;;9.31;47.70;92887.19;5111148;28;20420;-37
2022/04/18 08:53:40;;;;;;;0.60;0.60;;;;;;;9.37;43.47;92879.47;5111384;28;20084;-38
2022/04/18 08:56:06;;;;;;;0.88;0.80;;;;;;;9.51;44.50;92878.69;5110836;28;20450;-38
2022/04/18 08:58:32;;;;;;;0.70;0.70;;;;;;;8.94;44.22;92885.94;5111256;28;20026;-38
2022/04/18 09:00:59;;;;;;;0.95;0.95;;;;;;;8.93;46.03;92878.97;5110860;28;20443;-38
2022/04/18 09:03:24;;;;;;;0.80;0.80;;;;;;;8.97;45.63;92885.56;5110911;28;20023;-38
2022/04/18 09:06:03;;;;;;;0.85;0.85;;;;;;;8.88;43.25;92888.16;5109107;28;20495;-38
2022/04/18 09:08:29;;;;;;;0.50;0.50;;;;;;;8.52;43.95;92884.84;5091213;28;20477;-38
2022/04/18 09:10:54;;;;;;;2.80;2.10;;;;;;;8.51;48.63;92883.38;5090735;28;20027;-38
2022/04/18 09:13:23;;;;;;;1.52;1.42;;;;;;;8.17;45.83;92891.91;5092938;28;20020;-38
2022/04/18 09:15:49;;;;;;;0.93;0.93;;;;;;;7.74;46.45;92872.72;5090259;28;20552;-38
2022/04/18 09:18:19;;;;;;;2.35;1.13;;;;;;;7.81;47.74;92892.00;5090333;28;20059;-38
2022/04/18 09:20:55;;;;;;;0.80;0.80;;;;;;;7.80;49.60;92885.00;5090302;28;20412;-38
2022/04/18 09:23:23;;;;;;;1.08;0.90;;;;;;;8.07;48.82;92885.47;5090446;28;20024;-38
2022/04/18 09:26:00;;;;;;;0.70;0.70;;;;;;;7.86;46.50;92887.59;5090297;28;20026;-38
2022/04/18 09:28:40;;;;;;;0.60;0.60;;;;;;;7.47;47.19;92888.72;5090617;28;20085;-38
2022/04/18 09:31:10;;;;;;;0.55;0.55;;;;;;;7.46;48.01;92892.75;5090204;28;20028;-38
2022/04/18 09:33:38;;;;;;;2.05;0.60;;;;;;;7.44;48.19;92879.56;5090461;28;20511;-38
2022/04/18 09:36:16;;;;;;;2.00;0.50;;;;;;;7.31;50.26;92876.19;5090118;28;20052;-38
2022/04/18 09:38:54;;;;;;;1.50;0.70;;;;;;;7.49;48.24;92875.91;5090552;28;20455;-39
2022/04/18 09:41:32;;;;;;;0.60;0.60;;;;;;;7.47;49.17;92880.50;5090568;28;20475;-38
2022/04/18 09:43:58;;;;;;;0.68;0.68;;;;;;;7.10;48.32;92886.50;5090356;28;20027;-38
2022/04/18 09:46:24;;;;;;;0.70;0.70;;;;;;;6.94;48.11;92871.94;5090437;28;20454;-38
2022/04/18 09:48:51;;;;;;;0.70;0.70;;;;;;;6.75;49.35;92876.94;5090412;28;20115;-37
2022/04/18 09:51:23;;;;;;;0.70;0.68;;;;;;;6.73;49.31;92882.97;5090029;28;20020;-38
2022/04/18 09:53:53;;;;;;;3.17;1.55;;;;;;;6.79;50.79;92874.59;5090189;28;20089;-38
2022/04/18 09:56:21;;;;;;;8.10;3.78;;;;;;;6.52;49.70;92884.28;5090258;28;20016;-38
2022/04/18 09:58:47;;;;;;;3.08;1.27;;;;;;;6.58;52.17;92880.09;5090011;28;20457;-38
2022/04/18 10:01:13;;;;;;;7.28;3.60;;;;;;;6.63;50.37;92873.00;5090261;28;20054;-38
2022/04/18 10:03:39;;;;;;;8.05;4.15;;;;;;;6.57;49.59;92875.88;5104724;28;20474;-38
2022/04/18 10:06:05;;;;;;;6.75;4.10;;;;;;;6.53;51.13;92877.50;5110372;28;20020;-38
2022/04/18 10:08:32;;;;;;;17.98;8.48;;;;;;;6.54;51.84;92879.69;5110602;28;20039;-38
2022/04/18 10:10:59;;;;;;;7.72;4.13;;;;;;;6.54;50.46;92879.69;5110206;28;20043;-38
2022/04/18 10:13:27;;;;;;;26.48;12.88;;;;;;;6.45;51.26;92879.44;5100491;28;20073;-38
2022/04/18 10:15:53;;;;;;;28.80;12.63;;;;;;;6.45;50.89;92879.44;5089068;28;20075;-38
2022/04/18 10:18:19;;;;;;;18.35;9.70;;;;;;;6.00;51.66;92860.56;5089644;28;20024;-38
2022/04/18 10:21:15;;;;;;;2.85;1.52;;;;;;;6.22;52.16;92881.22;5089279;28;20493;-38
2022/04/18 10:23:46;;;;;;;7.85;5.70;;;;;;;6.21;54.54;92877.78;5089431;28;20024;-38
2022/04/18 10:26:34;;;;;;;5.55;4.43;;;;;;;6.31;53.05;92875.28;5092555;28;20028;-38
2022/04/18 10:29:10;;;;;;;2.58;2.25;;;;;;;5.82;53.79;92875.16;5093378;28;20036;-38
2022/04/18 10:31:45;;;;;;;1.25;1.15;;;;;;;5.57;56.47;92885.66;5092416;28;20035;-38
2022/04/18 10:34:15;;;;;;;1.83;1.70;;;;;;;5.73;56.12;92890.03;5093654;28;20028;-38
2022/04/18 10:36:45;;;;;;;3.03;2.53;;;;;;;5.74;55.60;92882.56;5093236;28;20111;-38
2022/04/18 10:39:11;;;;;;;1.38;1.27;;;;;;;5.70;55.10;92887.59;5093524;28;20020;-37
2022/04/18 10:41:45;;;;;;;2.25;2.05;;;;;;;5.55;56.56;92895.66;5093552;28;20016;-38
2022/04/18 10:44:13;;;;;;;1.40;1.30;;;;;;;5.50;55.23;92882.81;5093405;28;20445;-37
2022/04/18 10:47:05;;;;;;;1.90;1.70;;;;;;;5.45;56.40;92892.63;5093442;28;20095;-38
2022/04/18 10:49:32;;;;;;;1.23;1.13;;;;;;;5.58;57.72;92889.13;5090325;28;20043;-38
2022/04/18 10:52:08;;;;;;;1.27;1.23;;;;;;;5.53;56.06;92879.00;5092033;28;20023;-38
2022/04/18 10:54:35;;;;;;;1.10;1.00;;;;;;;5.46;57.35;92883.13;5093246;28;20020;-37
2022/04/18 10:57:02;;;;;;;3.88;1.42;;;;;;;5.65;58.29;92891.22;5093035;28;20016;-38
2022/04/18 10:59:30;;;;;;;1.55;1.05;;;;;;;5.50;56.14;92882.81;5092656;28;20566;-38
2022/04/18 11:02:01;;;;;;;2.25;1.42;;;;;;;5.17;55.25;92890.44;5092668;28;20035;-38
2022/04/18 11:04:30;;;;;;;1.52;1.20;;;;;;;5.21;57.32;92879.91;5093029;28;20050;-38
2022/04/18 11:06:59;;;;;;;1.23;1.13;;;;;;;5.49;55.83;92875.88;5092586;28;20076;-38
2022/04/18 11:09:25;;;;;;;0.80;0.80;;;;;;;5.47;55.08;92870.19;5092643;28;20023;-38
2022/04/18 11:12:12;;;;;;;4.68;2.38;;;;;;;5.10;55.13;92877.41;5092687;28;20497;-38
2022/04/18 11:14:38;;;;;;;0.80;0.80;;;;;;;5.28;56.57;92871.03;5095211;28;20052;-37
2022/04/18 11:17:05;;;;;;;1.75;1.10;;;;;;;5.53;55.85;92871.53;5092444;28;20035;-37
2022/04/18 11:19:31;;;;;;;4.03;1.92;;;;;;;5.66;54.93;92863.28;5092762;28;20158;-38
2022/04/18 11:21:58;;;;;;;2.80;1.83;;;;;;;5.25;54.04;92869.38;5092595;28;20107;-37
2022/04/18 11:24:41;;;;;;;1.55;1.45;;;;;;;5.13;54.53;92862.66;5092703;28;20024;-38
2022/04/18 11:27:12;;;;;;;2.50;1.15;;;;;;;5.13;55.32;92865.38;5092545;28;20020;-37
2022/04/18 11:29:39;;;;;;;2.33;1.50;;;;;;;5.28;55.02;92862.84;5092316;28;20019;-38
2022/04/18 11:32:06;;;;;;;1.95;1.42;;;;;;;5.41;54.30;92864.84;5092095;28;20024;-38
2022/04/18 11:34:33;;;;;;;1.23;1.05;;;;;;;5.52;53.36;92869.34;5092507;28;20095;-38
2022/04/18 11:37:00;;;;;;;1.15;1.00;;;;;;;5.57;53.75;92874.69;5091644;28;20028;-38
2022/04/18 11:39:42;;;;;;;0.80;0.80;;;;;;;5.68;52.14;92865.50;5092034;28;20095;-37
2022/04/18 11:42:07;;;;;;;0.90;0.90;;;;;;;5.68;52.20;92873.72;5092028;28;20020;-38
2022/04/18 11:44:39;;;;;;;2.17;1.05;;;;;;;5.76;52.26;92878.00;5091961;28;20039;-37
2022/04/18 11:47:10;;;;;;;1.20;1.08;;;;;;;5.75;50.95;92870.31;5092160;28;20427;-38
2022/04/18 11:49:38;;;;;;;1.98;1.10;;;;;;;5.79;51.73;92871.47;5092102;28;20024;-38
2022/04/18 11:52:04;;;;;;;4.43;1.98;;;;;;;6.08;53.19;92873.09;5091763;28;20024;-38
2022/04/18 11:54:30;;;;;;;1.00;0.90;;;;;;;6.35;52.51;92857.22;5092891;28;20024;-38
2022/04/18 11:57:03;;;;;;;1.15;1.00;;;;;;;6.59;53.10;92862.38;5112275;27;20385;-38
2022/04/18 11:59:32;;;;;;;0.70;0.70;;;;;;;6.61;50.58;92865.31;5112287;28;20094;-38